sensor_id;sensor_type;location;lat;lon;timestamp;temperature;humidity
22073;DHT22;11202;50.916;4.698;2022-12-18T00:01:43;-5.60;99.90
22073;DHT22;11202;50.916;4.698;2022-12-18T00:04:19;-5.60;99.90
22073;DHT22;11202;50.916;4.698;2022-12-18T00:06:51;-5.70;99.90
22073;DHT22;11202;50.916;4.698;2022-12-18T00:09:17;-5.80;99.90
22073;DHT22;11202;50.916;4.698;2022-12-18T00:11:42;-5.80;99.90
22073;DHT22;11202;50.916;4.698;2022-12-18T00:14:10;-5.90;99.90
22073;DHT22;11202;50.916;4.698;2022-12-18T00:16:36;-5.90;99.90
22073;DHT22;11202;50.916;4.698;2022-12-18T00:19:03;-5.90;99.90
22073;DHT22;11202;50.916;4.698;2022-12-18T00:21:31;-5.90;99.90
22073;DHT22;11202;50.916;4.698;2022-12-18T00:23:58;-5.80;99.90
22073;DHT22;11202;50.916;4.698;2022-12-18T00:26:30;-5.90;99.90
22073;DHT22;11202;50.916;4.698;2022-12-18T00:29:01;-5.90;99.90
22073;DHT22;11202;50.916;4.698;2022-12-18T00:31:28;-5.90;99.90
22073;DHT22;11202;50.916;4.698;2022-12-18T00:33:55;-5.90;99.90
22073;DHT22;11202;50.916;4.698;2022-12-18T00:36:32;-6.00;99.90
22073;DHT22;11202;50.916;4.698;2022-12-18T00:38:59;-6.10;99.90
22073;DHT22;11202;50.916;4.698;2022-12-18T00:41:26;-6.20;99.90
22073;DHT22;11202;50.916;4.698;2022-12-18T00:44:13;-6.20;99.90
22073;DHT22;11202;50.916;4.698;2022-12-18T00:46:39;-6.20;99.90
22073;DHT22;11202;50.916;4.698;2022-12-18T00:49:08;-6.20;99.90
22073;DHT22;11202;50.916;4.698;2022-12-18T00:51:33;-6.30;99.90
22073;DHT22;11202;50.916;4.698;2022-12-18T00:53:59;-6.40;99.90
22073;DHT22;11202;50.916;4.698;2022-12-18T00:56:25;-6.20;99.90
22073;DHT22;11202;50.916;4.698;2022-12-18T00:58:54;-6.20;99.90
22073;DHT22;11202;50.916;4.698;2022-12-18T01:01:19;-6.10;99.90
22073;DHT22;11202;50.916;4.698;2022-12-18T01:03:47;-6.10;99.90
22073;DHT22;11202;50.916;4.698;2022-12-18T01:06:15;-6.20;99.90
22073;DHT22;11202;50.916;4.698;2022-12-18T01:08:41;-6.30;99.90
22073;DHT22;11202;50.916;4.698;2022-12-18T01:11:16;-6.40;99.90
22073;DHT22;11202;50.916;4.698;2022-12-18T01:13:42;-6.30;99.90
22073;DHT22;11202;50.916;4.698;2022-12-18T01:16:12;-6.30;99.90
22073;DHT22;11202;50.916;4.698;2022-12-18T01:18:38;-6.40;99.90
22073;DHT22;11202;50.916;4.698;2022-12-18T01:21:12;-6.40;99.90
22073;DHT22;11202;50.916;4.698;2022-12-18T01:23:42;-6.40;99.90
22073;DHT22;11202;50.916;4.698;2022-12-18T01:26:11;-6.30;99.90
22073;DHT22;11202;50.916;4.698;2022-12-18T01:28:37;-6.20;99.90
22073;DHT22;11202;50.916;4.698;2022-12-18T01:31:15;-6.20;99.90
22073;DHT22;11202;50.916;4.698;2022-12-18T01:33:48;-6.20;99.90
22073;DHT22;11202;50.916;4.698;2022-12-18T01:36:22;-6.30;99.90
22073;DHT22;11202;50.916;4.698;2022-12-18T01:38:49;-6.30;99.90
22073;DHT22;11202;50.916;4.698;2022-12-18T01:41:18;-6.20;99.90
22073;DHT22;11202;50.916;4.698;2022-12-18T01:43:53;-6.20;99.90
22073;DHT22;11202;50.916;4.698;2022-12-18T01:46:21;-6.30;99.90
22073;DHT22;11202;50.916;4.698;2022-12-18T01:48:55;-6.30;99.90
22073;DHT22;11202;50.916;4.698;2022-12-18T01:51:22;-6.30;99.90
22073;DHT22;11202;50.916;4.698;2022-12-18T01:53:48;-6.20;99.90
22073;DHT22;11202;50.916;4.698;2022-12-18T01:56:19;-6.20;99.90
22073;DHT22;11202;50.916;4.698;2022-12-18T01:59:00;-6.20;99.90
22073;DHT22;11202;50.916;4.698;2022-12-18T02:01:29;-6.20;99.90
22073;DHT22;11202;50.916;4.698;2022-12-18T02:03:56;-6.20;99.90
22073;DHT22;11202;50.916;4.698;2022-12-18T02:06:41;-6.20;99.90
22073;DHT22;11202;50.916;4.698;2022-12-18T02:09:45;-6.30;99.90
22073;DHT22;11202;50.916;4.698;2022-12-18T02:12:19;-6.20;99.90
22073;DHT22;11202;50.916;4.698;2022-12-18T02:15:15;-6.20;99.90
22073;DHT22;11202;50.916;4.698;2022-12-18T02:17:57;-6.10;99.90
22073;DHT22;11202;50.916;4.698;2022-12-18T02:20:28;-6.00;99.90
22073;DHT22;11202;50.916;4.698;2022-12-18T02:28:11;-6.10;99.90
22073;DHT22;11202;50.916;4.698;2022-12-18T02:30:39;-6.10;99.90
22073;DHT22;11202;50.916;4.698;2022-12-18T02:33:07;-5.80;99.90
22073;DHT22;11202;50.916;4.698;2022-12-18T02:35:36;-5.90;99.90
22073;DHT22;11202;50.916;4.698;2022-12-18T02:38:06;-6.10;99.90
22073;DHT22;11202;50.916;4.698;2022-12-18T02:40:32;-6.10;99.90
22073;DHT22;11202;50.916;4.698;2022-12-18T02:43:09;-5.90;99.90
22073;DHT22;11202;50.916;4.698;2022-12-18T02:45:46;-5.70;99.90
22073;DHT22;11202;50.916;4.698;2022-12-18T02:48:12;-5.80;99.90
22073;DHT22;11202;50.916;4.698;2022-12-18T02:50:45;-5.90;99.90
22073;DHT22;11202;50.916;4.698;2022-12-18T02:53:31;-6.00;99.90
22073;DHT22;11202;50.916;4.698;2022-12-18T02:56:26;-6.20;99.90
22073;DHT22;11202;50.916;4.698;2022-12-18T02:59:13;-6.40;99.90
22073;DHT22;11202;50.916;4.698;2022-12-18T03:01:56;-6.50;99.90
22073;DHT22;11202;50.916;4.698;2022-12-18T03:04:47;-6.60;99.90
22073;DHT22;11202;50.916;4.698;2022-12-18T03:07:24;-6.70;99.90
22073;DHT22;11202;50.916;4.698;2022-12-18T03:09:53;-6.70;99.90
22073;DHT22;11202;50.916;4.698;2022-12-18T03:12:36;-6.80;99.90
22073;DHT22;11202;50.916;4.698;2022-12-18T03:17:33;-6.80;99.90
22073;DHT22;11202;50.916;4.698;2022-12-18T03:20:07;-6.80;99.90
22073;DHT22;11202;50.916;4.698;2022-12-18T03:22:35;-6.90;99.90
22073;DHT22;11202;50.916;4.698;2022-12-18T03:25:06;-6.80;99.90
22073;DHT22;11202;50.916;4.698;2022-12-18T03:27:33;-6.80;99.90
22073;DHT22;11202;50.916;4.698;2022-12-18T03:30:07;-6.80;99.90
22073;DHT22;11202;50.916;4.698;2022-12-18T03:35:29;-6.50;99.90
22073;DHT22;11202;50.916;4.698;2022-12-18T03:37:56;-6.60;99.90
22073;DHT22;11202;50.916;4.698;2022-12-18T03:40:31;-6.60;99.90
22073;DHT22;11202;50.916;4.698;2022-12-18T03:43:11;-6.70;99.90
22073;DHT22;11202;50.916;4.698;2022-12-18T03:45:51;-6.60;99.90
22073;DHT22;11202;50.916;4.698;2022-12-18T03:50:59;-6.40;99.90
22073;DHT22;11202;50.916;4.698;2022-12-18T03:53:55;-6.40;99.90
22073;DHT22;11202;50.916;4.698;2022-12-18T03:56:26;-6.70;99.90
22073;DHT22;11202;50.916;4.698;2022-12-18T03:58:54;-6.90;99.90
22073;DHT22;11202;50.916;4.698;2022-12-18T04:01:25;-7.00;99.90
22073;DHT22;11202;50.916;4.698;2022-12-18T04:03:55;-7.10;99.90
22073;DHT22;11202;50.916;4.698;2022-12-18T04:06:25;-7.10;99.90
22073;DHT22;11202;50.916;4.698;2022-12-18T04:08:52;-7.20;99.90
22073;DHT22;11202;50.916;4.698;2022-12-18T04:11:18;-7.20;99.90
22073;DHT22;11202;50.916;4.698;2022-12-18T04:13:44;-7.10;99.90
22073;DHT22;11202;50.916;4.698;2022-12-18T04:16:10;-7.20;99.90
22073;DHT22;11202;50.916;4.698;2022-12-18T04:18:37;-7.20;99.90
22073;DHT22;11202;50.916;4.698;2022-12-18T04:21:03;-7.20;99.90
22073;DHT22;11202;50.916;4.698;2022-12-18T04:23:29;-7.30;99.90
22073;DHT22;11202;50.916;4.698;2022-12-18T04:25:55;-7.20;99.90
22073;DHT22;11202;50.916;4.698;2022-12-18T04:28:21;-7.30;99.90
22073;DHT22;11202;50.916;4.698;2022-12-18T04:30:50;-7.20;99.90
22073;DHT22;11202;50.916;4.698;2022-12-18T04:33:16;-7.20;99.90
22073;DHT22;11202;50.916;4.698;2022-12-18T04:35:42;-7.10;99.90
22073;DHT22;11202;50.916;4.698;2022-12-18T04:38:08;-6.80;99.90
22073;DHT22;11202;50.916;4.698;2022-12-18T04:40:36;-6.90;99.90
22073;DHT22;11202;50.916;4.698;2022-12-18T04:43:02;-6.70;99.90
22073;DHT22;11202;50.916;4.698;2022-12-18T04:45:30;-6.50;99.90
22073;DHT22;11202;50.916;4.698;2022-12-18T04:47:57;-6.30;99.90
22073;DHT22;11202;50.916;4.698;2022-12-18T04:50:24;-6.20;99.90
22073;DHT22;11202;50.916;4.698;2022-12-18T04:52:50;-6.30;99.90
22073;DHT22;11202;50.916;4.698;2022-12-18T04:55:16;-6.40;99.90
22073;DHT22;11202;50.916;4.698;2022-12-18T04:57:42;-6.60;99.90
22073;DHT22;11202;50.916;4.698;2022-12-18T05:00:08;-6.80;99.90
22073;DHT22;11202;50.916;4.698;2022-12-18T05:02:34;-6.80;99.90
22073;DHT22;11202;50.916;4.698;2022-12-18T05:05:00;-7.10;99.90
22073;DHT22;11202;50.916;4.698;2022-12-18T05:07:25;-7.20;99.90
22073;DHT22;11202;50.916;4.698;2022-12-18T05:09:51;-7.20;99.90
22073;DHT22;11202;50.916;4.698;2022-12-18T05:12:17;-7.20;99.90
22073;DHT22;11202;50.916;4.698;2022-12-18T05:14:43;-7.10;99.90
22073;DHT22;11202;50.916;4.698;2022-12-18T05:17:09;-7.10;99.90
22073;DHT22;11202;50.916;4.698;2022-12-18T05:19:34;-7.20;99.90
22073;DHT22;11202;50.916;4.698;2022-12-18T05:22:00;-7.40;99.90
22073;DHT22;11202;50.916;4.698;2022-12-18T05:24:26;-7.30;99.90
22073;DHT22;11202;50.916;4.698;2022-12-18T05:26:55;-7.00;99.90
22073;DHT22;11202;50.916;4.698;2022-12-18T05:29:21;-6.90;99.90
22073;DHT22;11202;50.916;4.698;2022-12-18T05:31:49;-7.00;99.90
22073;DHT22;11202;50.916;4.698;2022-12-18T05:34:15;-6.90;99.90
22073;DHT22;11202;50.916;4.698;2022-12-18T05:36:41;-7.00;99.90
22073;DHT22;11202;50.916;4.698;2022-12-18T05:39:10;-7.10;99.90
22073;DHT22;11202;50.916;4.698;2022-12-18T05:41:36;-7.10;99.90
22073;DHT22;11202;50.916;4.698;2022-12-18T05:44:02;-7.10;99.90
22073;DHT22;11202;50.916;4.698;2022-12-18T05:46:28;-7.10;99.90
22073;DHT22;11202;50.916;4.698;2022-12-18T05:48:55;-7.20;99.90
22073;DHT22;11202;50.916;4.698;2022-12-18T05:51:21;-7.20;99.90
22073;DHT22;11202;50.916;4.698;2022-12-18T05:53:50;-7.10;99.90
22073;DHT22;11202;50.916;4.698;2022-12-18T05:56:21;-7.10;99.90
22073;DHT22;11202;50.916;4.698;2022-12-18T05:58:50;-7.00;99.90
22073;DHT22;11202;50.916;4.698;2022-12-18T06:01:21;-6.90;99.90
22073;DHT22;11202;50.916;4.698;2022-12-18T06:03:47;-7.00;99.90
22073;DHT22;11202;50.916;4.698;2022-12-18T06:06:24;-6.90;99.90
22073;DHT22;11202;50.916;4.698;2022-12-18T06:08:50;-6.90;99.90
22073;DHT22;11202;50.916;4.698;2022-12-18T06:11:19;-6.90;99.90
22073;DHT22;11202;50.916;4.698;2022-12-18T06:13:46;-7.00;99.90
22073;DHT22;11202;50.916;4.698;2022-12-18T06:16:12;-6.90;99.90
22073;DHT22;11202;50.916;4.698;2022-12-18T06:18:41;-6.90;99.90
22073;DHT22;11202;50.916;4.698;2022-12-18T06:21:07;-6.70;99.90
22073;DHT22;11202;50.916;4.698;2022-12-18T06:23:33;-6.40;99.90
22073;DHT22;11202;50.916;4.698;2022-12-18T06:26:02;-6.40;99.90
22073;DHT22;11202;50.916;4.698;2022-12-18T06:28:28;-6.40;99.90
22073;DHT22;11202;50.916;4.698;2022-12-18T06:30:54;-6.50;99.90
22073;DHT22;11202;50.916;4.698;2022-12-18T06:33:20;-6.50;99.90
22073;DHT22;11202;50.916;4.698;2022-12-18T06:35:50;-6.60;99.90
22073;DHT22;11202;50.916;4.698;2022-12-18T06:38:16;-6.70;99.90
22073;DHT22;11202;50.916;4.698;2022-12-18T06:40:41;-6.80;99.90
22073;DHT22;11202;50.916;4.698;2022-12-18T06:43:07;-6.80;99.90
22073;DHT22;11202;50.916;4.698;2022-12-18T06:45:38;-6.90;99.90
22073;DHT22;11202;50.916;4.698;2022-12-18T06:48:04;-6.90;99.90
22073;DHT22;11202;50.916;4.698;2022-12-18T06:50:32;-6.70;99.90
22073;DHT22;11202;50.916;4.698;2022-12-18T06:52:57;-6.70;99.90
22073;DHT22;11202;50.916;4.698;2022-12-18T06:55:26;-6.70;99.90
22073;DHT22;11202;50.916;4.698;2022-12-18T06:57:52;-6.70;99.90
22073;DHT22;11202;50.916;4.698;2022-12-18T07:00:18;-6.60;99.90
22073;DHT22;11202;50.916;4.698;2022-12-18T07:02:44;-6.60;99.90
22073;DHT22;11202;50.916;4.698;2022-12-18T07:05:10;-6.60;99.90
22073;DHT22;11202;50.916;4.698;2022-12-18T07:07:36;-6.60;99.90
22073;DHT22;11202;50.916;4.698;2022-12-18T07:10:03;-6.60;99.90
22073;DHT22;11202;50.916;4.698;2022-12-18T07:12:29;-6.50;99.90
22073;DHT22;11202;50.916;4.698;2022-12-18T07:14:55;-6.60;99.90
22073;DHT22;11202;50.916;4.698;2022-12-18T07:17:21;-6.60;99.90
22073;DHT22;11202;50.916;4.698;2022-12-18T07:19:46;-6.60;99.90
22073;DHT22;11202;50.916;4.698;2022-12-18T07:22:12;-6.70;99.90
22073;DHT22;11202;50.916;4.698;2022-12-18T07:24:38;-6.70;99.90
22073;DHT22;11202;50.916;4.698;2022-12-18T07:27:04;-6.60;99.90
22073;DHT22;11202;50.916;4.698;2022-12-18T07:29:30;-6.60;99.90
22073;DHT22;11202;50.916;4.698;2022-12-18T07:31:56;-6.50;99.90
22073;DHT22;11202;50.916;4.698;2022-12-18T07:34:22;-6.50;99.90
22073;DHT22;11202;50.916;4.698;2022-12-18T07:36:48;-6.50;99.90
22073;DHT22;11202;50.916;4.698;2022-12-18T07:39:14;-6.40;99.90
22073;DHT22;11202;50.916;4.698;2022-12-18T07:41:40;-6.30;99.90
22073;DHT22;11202;50.916;4.698;2022-12-18T07:44:11;-6.30;99.90
22073;DHT22;11202;50.916;4.698;2022-12-18T07:46:37;-6.30;99.90
22073;DHT22;11202;50.916;4.698;2022-12-18T07:49:03;-6.20;99.90
22073;DHT22;11202;50.916;4.698;2022-12-18T07:51:31;-6.30;99.90
22073;DHT22;11202;50.916;4.698;2022-12-18T07:53:57;-6.40;99.90
22073;DHT22;11202;50.916;4.698;2022-12-18T07:56:26;-6.50;99.90
22073;DHT22;11202;50.916;4.698;2022-12-18T07:58:54;-6.60;99.90
22073;DHT22;11202;50.916;4.698;2022-12-18T08:01:20;-6.50;99.90
22073;DHT22;11202;50.916;4.698;2022-12-18T08:03:46;-6.50;99.90
22073;DHT22;11202;50.916;4.698;2022-12-18T08:06:12;-6.30;99.90
22073;DHT22;11202;50.916;4.698;2022-12-18T08:08:37;-6.30;99.90
22073;DHT22;11202;50.916;4.698;2022-12-18T08:11:03;-6.30;99.90
22073;DHT22;11202;50.916;4.698;2022-12-18T08:13:32;-6.20;99.90
22073;DHT22;11202;50.916;4.698;2022-12-18T08:16:00;-6.00;99.90
22073;DHT22;11202;50.916;4.698;2022-12-18T08:18:27;-5.50;99.90
22073;DHT22;11202;50.916;4.698;2022-12-18T08:20:54;-5.10;99.90
22073;DHT22;11202;50.916;4.698;2022-12-18T08:23:20;-4.50;99.90
22073;DHT22;11202;50.916;4.698;2022-12-18T08:25:46;-4.10;99.90
22073;DHT22;11202;50.916;4.698;2022-12-18T08:28:16;-3.60;99.90
22073;DHT22;11202;50.916;4.698;2022-12-18T08:30:41;-3.70;99.90
22073;DHT22;11202;50.916;4.698;2022-12-18T08:33:07;-3.70;99.90
22073;DHT22;11202;50.916;4.698;2022-12-18T08:35:37;-3.70;99.90
22073;DHT22;11202;50.916;4.698;2022-12-18T08:38:03;-3.60;99.90
22073;DHT22;11202;50.916;4.698;2022-12-18T08:40:31;-3.40;99.90
22073;DHT22;11202;50.916;4.698;2022-12-18T08:42:57;-3.50;99.90
22073;DHT22;11202;50.916;4.698;2022-12-18T08:45:41;-2.80;99.90
22073;DHT22;11202;50.916;4.698;2022-12-18T08:48:07;-2.90;99.90
22073;DHT22;11202;50.916;4.698;2022-12-18T08:50:35;-2.90;99.90
22073;DHT22;11202;50.916;4.698;2022-12-18T08:53:01;-3.10;99.90
22073;DHT22;11202;50.916;4.698;2022-12-18T08:55:28;-3.10;99.90
22073;DHT22;11202;50.916;4.698;2022-12-18T08:57:54;-3.20;99.90
22073;DHT22;11202;50.916;4.698;2022-12-18T09:00:20;-3.10;99.90
22073;DHT22;11202;50.916;4.698;2022-12-18T09:02:46;-3.10;99.90
22073;DHT22;11202;50.916;4.698;2022-12-18T09:05:11;-2.80;99.90
22073;DHT22;11202;50.916;4.698;2022-12-18T09:07:38;-2.50;99.90
22073;DHT22;11202;50.916;4.698;2022-12-18T09:10:06;-2.00;99.90
22073;DHT22;11202;50.916;4.698;2022-12-18T09:12:33;-2.10;99.90
22073;DHT22;11202;50.916;4.698;2022-12-18T09:14:59;-2.00;99.90
22073;DHT22;11202;50.916;4.698;2022-12-18T09:17:27;-2.20;99.90
22073;DHT22;11202;50.916;4.698;2022-12-18T09:19:55;-2.30;99.90
22073;DHT22;11202;50.916;4.698;2022-12-18T09:22:20;-2.20;99.90
22073;DHT22;11202;50.916;4.698;2022-12-18T09:24:48;-1.90;99.90
22073;DHT22;11202;50.916;4.698;2022-12-18T09:27:14;-1.50;99.90
22073;DHT22;11202;50.916;4.698;2022-12-18T09:29:40;-1.10;99.90
22073;DHT22;11202;50.916;4.698;2022-12-18T09:32:08;-0.60;99.90
22073;DHT22;11202;50.916;4.698;2022-12-18T09:34:34;-0.20;99.90
22073;DHT22;11202;50.916;4.698;2022-12-18T09:37:00;0.00;99.90
22073;DHT22;11202;50.916;4.698;2022-12-18T09:39:26;-0.20;99.90
22073;DHT22;11202;50.916;4.698;2022-12-18T09:41:56;-0.30;99.90
22073;DHT22;11202;50.916;4.698;2022-12-18T09:44:29;-0.60;99.90
22073;DHT22;11202;50.916;4.698;2022-12-18T09:47:10;-1.00;99.90
22073;DHT22;11202;50.916;4.698;2022-12-18T09:49:46;-1.50;99.90
22073;DHT22;11202;50.916;4.698;2022-12-18T09:54:56;-1.60;99.90
22073;DHT22;11202;50.916;4.698;2022-12-18T09:57:24;-1.30;99.90
22073;DHT22;11202;50.916;4.698;2022-12-18T10:02:56;-1.00;99.90
22073;DHT22;11202;50.916;4.698;2022-12-18T10:06:06;-1.00;99.90
22073;DHT22;11202;50.916;4.698;2022-12-18T10:14:06;-0.30;99.90
22073;DHT22;11202;50.916;4.698;2022-12-18T10:19:50;-0.10;99.90
22073;DHT22;11202;50.916;4.698;2022-12-18T10:22:23;0.10;99.90
22073;DHT22;11202;50.916;4.698;2022-12-18T10:28:00;0.30;99.90
22073;DHT22;11202;50.916;4.698;2022-12-18T10:30:32;0.20;99.90
22073;DHT22;11202;50.916;4.698;2022-12-18T10:33:02;0.40;99.90
22073;DHT22;11202;50.916;4.698;2022-12-18T10:35:31;0.30;99.90
22073;DHT22;11202;50.916;4.698;2022-12-18T10:38:02;0.40;99.90
22073;DHT22;11202;50.916;4.698;2022-12-18T10:40:28;0.20;99.90
22073;DHT22;11202;50.916;4.698;2022-12-18T10:46:05;0.10;99.90
22073;DHT22;11202;50.916;4.698;2022-12-18T10:48:41;0.10;99.90
22073;DHT22;11202;50.916;4.698;2022-12-18T10:54:01;0.20;99.90
22073;DHT22;11202;50.916;4.698;2022-12-18T10:56:29;0.00;99.90
22073;DHT22;11202;50.916;4.698;2022-12-18T10:59:09;0.00;99.90
22073;DHT22;11202;50.916;4.698;2022-12-18T11:02:15;-0.10;99.90
22073;DHT22;11202;50.916;4.698;2022-12-18T11:04:51;0.00;99.90
22073;DHT22;11202;50.916;4.698;2022-12-18T11:07:17;0.20;99.90
22073;DHT22;11202;50.916;4.698;2022-12-18T11:09:45;0.20;99.90
22073;DHT22;11202;50.916;4.698;2022-12-18T11:12:25;0.30;99.90
22073;DHT22;11202;50.916;4.698;2022-12-18T11:14:54;0.50;99.90
22073;DHT22;11202;50.916;4.698;2022-12-18T11:17:29;0.60;99.90
22073;DHT22;11202;50.916;4.698;2022-12-18T11:20:05;0.70;99.90
22073;DHT22;11202;50.916;4.698;2022-12-18T11:22:36;0.80;99.90
22073;DHT22;11202;50.916;4.698;2022-12-18T11:30:35;1.10;99.90
22073;DHT22;11202;50.916;4.698;2022-12-18T11:33:09;1.20;99.90
22073;DHT22;11202;50.916;4.698;2022-12-18T11:40:50;1.10;99.90
22073;DHT22;11202;50.916;4.698;2022-12-18T11:43:38;1.00;99.90
22073;DHT22;11202;50.916;4.698;2022-12-18T11:46:13;1.10;99.90
22073;DHT22;11202;50.916;4.698;2022-12-18T11:48:54;1.20;99.90
22073;DHT22;11202;50.916;4.698;2022-12-18T11:51:33;1.20;99.90
22073;DHT22;11202;50.916;4.698;2022-12-18T11:54:04;1.30;99.90
22073;DHT22;11202;50.916;4.698;2022-12-18T11:56:39;1.50;99.90
22073;DHT22;11202;50.916;4.698;2022-12-18T12:12:48;1.80;99.90
22073;DHT22;11202;50.916;4.698;2022-12-18T12:15:40;1.90;99.90
22073;DHT22;11202;50.916;4.698;2022-12-18T12:18:40;1.70;99.90
22073;DHT22;11202;50.916;4.698;2022-12-18T12:21:42;1.60;99.90
22073;DHT22;11202;50.916;4.698;2022-12-18T12:32:45;1.60;99.90
22073;DHT22;11202;50.916;4.698;2022-12-18T12:35:34;1.50;99.90
22073;DHT22;11202;50.916;4.698;2022-12-18T12:40:39;1.60;99.90
22073;DHT22;11202;50.916;4.698;2022-12-18T12:46:10;1.90;99.90
22073;DHT22;11202;50.916;4.698;2022-12-18T12:48:43;1.80;99.90
22073;DHT22;11202;50.916;4.698;2022-12-18T12:51:16;1.80;99.90
22073;DHT22;11202;50.916;4.698;2022-12-18T12:53:43;1.80;99.90
22073;DHT22;11202;50.916;4.698;2022-12-18T12:56:12;1.70;99.90
22073;DHT22;11202;50.916;4.698;2022-12-18T12:58:43;1.60;99.90
22073;DHT22;11202;50.916;4.698;2022-12-18T13:01:32;1.40;99.90
22073;DHT22;11202;50.916;4.698;2022-12-18T13:04:12;1.30;99.90
22073;DHT22;11202;50.916;4.698;2022-12-18T13:06:50;1.50;99.90
22073;DHT22;11202;50.916;4.698;2022-12-18T13:09:19;1.90;99.90
22073;DHT22;11202;50.916;4.698;2022-12-18T13:11:47;2.00;99.90
22073;DHT22;11202;50.916;4.698;2022-12-18T13:14:41;2.00;99.90
22073;DHT22;11202;50.916;4.698;2022-12-18T13:20:16;2.60;99.90
22073;DHT22;11202;50.916;4.698;2022-12-18T13:22:48;2.70;99.90
22073;DHT22;11202;50.916;4.698;2022-12-18T13:28:02;2.40;99.90
22073;DHT22;11202;50.916;4.698;2022-12-18T13:38:33;2.60;99.90
22073;DHT22;11202;50.916;4.698;2022-12-18T13:41:24;2.60;99.90
22073;DHT22;11202;50.916;4.698;2022-12-18T13:43:55;2.60;99.90
22073;DHT22;11202;50.916;4.698;2022-12-18T13:46:47;2.50;99.90
22073;DHT22;11202;50.916;4.698;2022-12-18T13:49:19;2.60;99.90
22073;DHT22;11202;50.916;4.698;2022-12-18T13:51:54;2.60;99.90
22073;DHT22;11202;50.916;4.698;2022-12-18T13:56:54;2.60;99.90
22073;DHT22;11202;50.916;4.698;2022-12-18T13:59:33;2.60;99.90
22073;DHT22;11202;50.916;4.698;2022-12-18T14:02:11;2.50;99.90
22073;DHT22;11202;50.916;4.698;2022-12-18T14:04:38;2.20;99.90
22073;DHT22;11202;50.916;4.698;2022-12-18T14:07:12;2.30;99.90
22073;DHT22;11202;50.916;4.698;2022-12-18T14:09:43;2.10;99.90
22073;DHT22;11202;50.916;4.698;2022-12-18T14:12:27;1.90;99.90
22073;DHT22;11202;50.916;4.698;2022-12-18T14:18:02;1.80;99.90
22073;DHT22;11202;50.916;4.698;2022-12-18T14:20:32;1.90;99.90
22073;DHT22;11202;50.916;4.698;2022-12-18T14:22:59;1.90;99.90
22073;DHT22;11202;50.916;4.698;2022-12-18T14:25:28;2.00;99.90
22073;DHT22;11202;50.916;4.698;2022-12-18T14:30:43;1.90;99.90
22073;DHT22;11202;50.916;4.698;2022-12-18T14:33:12;1.80;99.90
22073;DHT22;11202;50.916;4.698;2022-12-18T14:36:00;1.70;99.90
22073;DHT22;11202;50.916;4.698;2022-12-18T14:38:41;2.20;99.90
22073;DHT22;11202;50.916;4.698;2022-12-18T14:41:12;2.40;99.90
22073;DHT22;11202;50.916;4.698;2022-12-18T14:43:43;2.30;99.90
22073;DHT22;11202;50.916;4.698;2022-12-18T14:46:38;2.30;99.90
22073;DHT22;11202;50.916;4.698;2022-12-18T14:49:31;2.40;99.90
22073;DHT22;11202;50.916;4.698;2022-12-18T14:51:59;2.50;99.90
22073;DHT22;11202;50.916;4.698;2022-12-18T14:54:29;2.50;99.90
22073;DHT22;11202;50.916;4.698;2022-12-18T14:57:13;2.50;99.90
22073;DHT22;11202;50.916;4.698;2022-12-18T14:59:43;2.50;99.90
22073;DHT22;11202;50.916;4.698;2022-12-18T15:02:24;2.50;99.90
22073;DHT22;11202;50.916;4.698;2022-12-18T15:07:47;2.40;99.90
22073;DHT22;11202;50.916;4.698;2022-12-18T15:18:21;2.20;99.90
22073;DHT22;11202;50.916;4.698;2022-12-18T15:20:57;2.20;99.90
22073;DHT22;11202;50.916;4.698;2022-12-18T15:23:27;2.10;99.90
22073;DHT22;11202;50.916;4.698;2022-12-18T15:26:06;2.00;99.90
22073;DHT22;11202;50.916;4.698;2022-12-18T15:28:36;2.00;99.90
22073;DHT22;11202;50.916;4.698;2022-12-18T15:36:22;1.80;99.90
22073;DHT22;11202;50.916;4.698;2022-12-18T15:38:50;1.80;99.90
22073;DHT22;11202;50.916;4.698;2022-12-18T15:41:21;1.70;99.90
22073;DHT22;11202;50.916;4.698;2022-12-18T15:43:48;1.80;99.90
22073;DHT22;11202;50.916;4.698;2022-12-18T15:46:17;1.90;99.90
22073;DHT22;11202;50.916;4.698;2022-12-18T15:48:49;2.00;99.90
22073;DHT22;11202;50.916;4.698;2022-12-18T15:51:23;1.90;99.90
22073;DHT22;11202;50.916;4.698;2022-12-18T15:53:52;1.90;99.90
22073;DHT22;11202;50.916;4.698;2022-12-18T15:56:19;1.80;99.90
22073;DHT22;11202;50.916;4.698;2022-12-18T15:59:18;1.80;99.90
22073;DHT22;11202;50.916;4.698;2022-12-18T16:01:46;1.80;99.90
22073;DHT22;11202;50.916;4.698;2022-12-18T16:04:16;1.80;99.90
22073;DHT22;11202;50.916;4.698;2022-12-18T16:06:42;1.80;99.90
22073;DHT22;11202;50.916;4.698;2022-12-18T16:09:08;1.70;99.90
22073;DHT22;11202;50.916;4.698;2022-12-18T16:11:38;1.70;99.90
22073;DHT22;11202;50.916;4.698;2022-12-18T16:14:19;1.80;99.90
22073;DHT22;11202;50.916;4.698;2022-12-18T16:16:50;1.70;99.90
22073;DHT22;11202;50.916;4.698;2022-12-18T16:19:19;1.60;99.90
22073;DHT22;11202;50.916;4.698;2022-12-18T16:21:47;1.60;99.90
22073;DHT22;11202;50.916;4.698;2022-12-18T16:24:20;1.60;99.90
22073;DHT22;11202;50.916;4.698;2022-12-18T16:26:47;1.60;99.90
22073;DHT22;11202;50.916;4.698;2022-12-18T16:29:14;1.60;99.90
22073;DHT22;11202;50.916;4.698;2022-12-18T16:31:40;1.70;99.90
22073;DHT22;11202;50.916;4.698;2022-12-18T16:34:23;1.70;99.90
22073;DHT22;11202;50.916;4.698;2022-12-18T16:36:52;1.60;99.90
22073;DHT22;11202;50.916;4.698;2022-12-18T16:39:19;1.60;99.90
22073;DHT22;11202;50.916;4.698;2022-12-18T16:41:46;1.70;99.90
22073;DHT22;11202;50.916;4.698;2022-12-18T16:44:12;1.70;99.90
22073;DHT22;11202;50.916;4.698;2022-12-18T16:46:38;1.70;99.90
22073;DHT22;11202;50.916;4.698;2022-12-18T16:49:04;1.70;99.90
22073;DHT22;11202;50.916;4.698;2022-12-18T16:51:33;1.60;99.90
22073;DHT22;11202;50.916;4.698;2022-12-18T16:54:00;1.60;99.90
22073;DHT22;11202;50.916;4.698;2022-12-18T16:56:26;1.70;99.90
22073;DHT22;11202;50.916;4.698;2022-12-18T16:58:59;1.70;99.90
22073;DHT22;11202;50.916;4.698;2022-12-18T17:01:27;1.80;99.90
22073;DHT22;11202;50.916;4.698;2022-12-18T17:04:00;1.80;99.90
22073;DHT22;11202;50.916;4.698;2022-12-18T17:06:28;1.80;99.90
22073;DHT22;11202;50.916;4.698;2022-12-18T17:09:02;1.70;99.90
22073;DHT22;11202;50.916;4.698;2022-12-18T17:11:30;1.80;99.90
22073;DHT22;11202;50.916;4.698;2022-12-18T17:13:56;1.80;99.90
22073;DHT22;11202;50.916;4.698;2022-12-18T17:16:22;1.80;99.90
22073;DHT22;11202;50.916;4.698;2022-12-18T17:18:51;1.80;99.90
22073;DHT22;11202;50.916;4.698;2022-12-18T17:21:17;1.80;99.90
22073;DHT22;11202;50.916;4.698;2022-12-18T17:23:44;1.80;99.90
22073;DHT22;11202;50.916;4.698;2022-12-18T17:26:11;1.80;99.90
22073;DHT22;11202;50.916;4.698;2022-12-18T17:28:38;1.80;99.90
22073;DHT22;11202;50.916;4.698;2022-12-18T17:31:19;1.80;99.90
22073;DHT22;11202;50.916;4.698;2022-12-18T17:33:47;1.80;99.90
22073;DHT22;11202;50.916;4.698;2022-12-18T17:36:14;1.80;99.90
22073;DHT22;11202;50.916;4.698;2022-12-18T17:38:40;1.90;99.90
22073;DHT22;11202;50.916;4.698;2022-12-18T17:41:10;1.90;99.90
22073;DHT22;11202;50.916;4.698;2022-12-18T17:43:36;1.90;99.90
22073;DHT22;11202;50.916;4.698;2022-12-18T17:46:05;1.90;99.90
22073;DHT22;11202;50.916;4.698;2022-12-18T17:48:32;1.90;99.90
22073;DHT22;11202;50.916;4.698;2022-12-18T17:51:05;1.90;99.90
22073;DHT22;11202;50.916;4.698;2022-12-18T17:53:31;1.90;99.90